createdAt,value
2017-05-19T00:01:21.400Z,6.46
2017-05-19T00:03:49.612Z,5.32
2017-05-19T00:06:18.585Z,4.94
2017-05-19T00:08:46.797Z,5.38
2017-05-19T00:11:15.024Z,6.02
2017-05-19T00:13:43.223Z,5.22
2017-05-19T00:16:11.443Z,4.96
2017-05-19T00:18:39.645Z,5.48
2017-05-19T00:21:07.874Z,5.52
2017-05-19T00:23:36.091Z,6.30
2017-05-19T00:26:04.304Z,6.02
2017-05-19T00:28:33.259Z,5.64
2017-05-19T00:31:01.469Z,6.22
2017-05-19T00:33:29.702Z,5.60
2017-05-19T00:35:57.911Z,5.82
2017-05-19T00:38:26.119Z,4.50
2017-05-19T00:40:54.340Z,4.46
2017-05-19T00:43:22.552Z,4.94
2017-05-19T00:45:50.774Z,5.16
2017-05-19T00:48:18.994Z,5.10
2017-05-19T00:50:47.955Z,5.68
2017-05-19T00:53:16.157Z,5.72
2017-05-19T00:55:45.111Z,5.00
2017-05-19T00:58:13.332Z,6.52
2017-05-19T01:00:42.280Z,6.32
2017-05-19T01:03:10.499Z,7.20
2017-05-19T01:05:40.367Z,8.62
2017-05-19T01:08:08.608Z,9.18
2017-05-19T01:10:36.819Z,8.74
2017-05-19T01:13:05.032Z,9.44
2017-05-19T01:15:33.992Z,8.26
2017-05-19T01:18:02.215Z,9.26
2017-05-19T01:20:30.448Z,10.22
2017-05-19T01:22:58.675Z,10.38
2017-05-19T01:25:26.898Z,8.94
2017-05-19T01:27:55.121Z,9.40
2017-05-19T01:30:23.329Z,8.36
2017-05-19T01:32:51.544Z,8.12
2017-05-19T01:35:19.764Z,7.52
2017-05-19T01:37:47.995Z,7.70
2017-05-19T01:40:16.945Z,7.66
2017-05-19T01:42:45.164Z,7.20
2017-05-19T01:45:14.118Z,8.02
2017-05-19T01:47:42.339Z,8.28
2017-05-19T01:50:11.287Z,8.90
2017-05-19T01:52:39.496Z,10.66
2017-05-19T01:55:08.456Z,12.76
2017-05-19T01:57:36.679Z,13.34
2017-05-19T02:00:04.900Z,12.46
2017-05-19T02:02:33.107Z,12.38
2017-05-19T02:05:02.061Z,16.08
2017-05-19T02:07:30.272Z,7.72
2017-05-19T02:09:59.231Z,5.50
2017-05-19T02:12:27.454Z,9.82
2017-05-19T02:14:56.403Z,8.46
2017-05-19T02:17:24.627Z,9.64
2017-05-19T02:19:52.827Z,7.40
2017-05-19T02:22:21.027Z,7.68
2017-05-19T02:24:49.251Z,8.02
2017-05-19T02:27:17.475Z,9.20
2017-05-19T02:30:02.972Z,6.26
2017-05-19T02:32:31.175Z,7.36
2017-05-19T02:35:00.132Z,8.64
2017-05-19T02:37:28.335Z,8.72
2017-05-19T02:39:57.287Z,9.42
2017-05-19T02:42:25.505Z,7.92
2017-05-19T02:44:54.457Z,8.34
2017-05-19T02:47:22.684Z,8.18
2017-05-19T02:49:51.619Z,7.58
2017-05-19T02:52:19.851Z,10.74
2017-05-19T02:54:48.847Z,11.20
2017-05-19T02:57:17.058Z,14.70
2017-05-19T02:59:45.279Z,14.60
2017-05-19T03:02:14.240Z,10.72
2017-05-19T03:04:42.459Z,12.12
2017-05-19T03:07:10.673Z,9.32
2017-05-19T03:09:38.887Z,9.38
2017-05-19T03:12:07.846Z,14.48
2017-05-19T03:14:36.061Z,18.28
2017-05-19T03:17:05.567Z,20.10
2017-05-19T03:19:34.508Z,23.06
2017-05-19T03:22:02.736Z,22.14
2017-05-19T03:24:31.695Z,17.34
2017-05-19T03:26:59.919Z,15.66
2017-05-19T03:29:28.128Z,21.08
2017-05-19T03:31:56.332Z,25.52
2017-05-19T03:34:24.555Z,28.00
2017-05-19T03:36:52.767Z,31.56
2017-05-19T03:39:21.003Z,32.00
2017-05-19T03:41:49.219Z,27.68
2017-05-19T03:44:17.436Z,25.96
2017-05-19T03:46:45.648Z,20.18
2017-05-19T03:49:13.852Z,18.64
2017-05-19T03:51:42.077Z,16.22
2017-05-19T03:54:10.291Z,14.40
2017-05-19T03:56:38.503Z,15.92
2017-05-19T03:59:07.459Z,17.24
2017-05-19T04:01:35.683Z,16.16
2017-05-19T04:04:03.894Z,19.02
2017-05-19T04:06:32.096Z,19.92
2017-05-19T04:09:00.315Z,27.38
2017-05-19T04:11:28.535Z,32.30
2017-05-19T04:13:56.757Z,24.48
2017-05-19T04:16:24.972Z,23.84
2017-05-19T04:18:53.192Z,16.76
2017-05-19T04:21:22.136Z,12.32
2017-05-19T04:23:50.347Z,14.76
2017-05-19T04:26:19.320Z,14.48
2017-05-19T04:28:47.607Z,15.34
2017-05-19T04:31:15.878Z,18.86
2017-05-19T04:33:44.091Z,17.14
2017-05-19T04:36:12.305Z,13.66
2017-05-19T04:38:40.767Z,11.98
2017-05-19T04:41:08.967Z,10.70
2017-05-19T04:43:37.179Z,10.38
2017-05-19T04:46:06.131Z,10.80
2017-05-19T04:48:34.357Z,11.26
2017-05-19T04:51:02.579Z,10.42
2017-05-19T04:53:30.807Z,9.76
2017-05-19T04:55:59.748Z,9.10
2017-05-19T04:58:27.953Z,7.94
2017-05-19T05:00:57.807Z,7.66
2017-05-19T05:03:26.016Z,9.30
2017-05-19T05:05:54.238Z,12.20
2017-05-19T05:08:22.457Z,10.56
2017-05-19T05:10:50.679Z,12.52
2017-05-19T05:13:19.627Z,15.54
2017-05-19T05:15:47.839Z,11.78
2017-05-19T05:18:16.795Z,11.90
2017-05-19T05:20:45.020Z,15.52
2017-05-19T05:23:13.240Z,15.96
2017-05-19T05:25:41.450Z,11.32
2017-05-19T05:28:10.428Z,14.94
2017-05-19T05:30:38.640Z,11.24
2017-05-19T05:33:06.855Z,10.04
2017-05-19T05:35:35.080Z,16.50
2017-05-19T05:38:04.027Z,16.84
2017-05-19T05:41:09.036Z,18.64
2017-05-19T05:43:37.255Z,14.58
2017-05-19T05:46:05.470Z,12.96
2017-05-19T05:48:33.704Z,16.20
2017-05-19T05:51:01.920Z,19.42
2017-05-19T05:53:30.147Z,15.42
2017-05-19T05:55:58.371Z,12.52
2017-05-19T05:58:26.588Z,12.28
2017-05-19T06:00:54.813Z,12.64
2017-05-19T06:03:23.039Z,14.04
2017-05-19T06:05:51.255Z,14.30
2017-05-19T06:08:19.471Z,10.58
2017-05-19T06:10:47.695Z,11.00
2017-05-19T06:13:15.922Z,10.68
2017-05-19T06:15:44.147Z,10.92
2017-05-19T06:18:12.379Z,11.00
2017-05-19T06:20:40.592Z,15.94
2017-05-19T06:23:08.835Z,17.04
2017-05-19T06:25:37.056Z,14.04
2017-05-19T06:28:05.286Z,11.38
2017-05-19T06:30:33.503Z,10.64
2017-05-19T06:33:01.741Z,11.14
2017-05-19T06:35:29.967Z,10.60
2017-05-19T06:37:58.192Z,11.44
2017-05-19T06:40:26.404Z,10.30
2017-05-19T06:42:54.631Z,11.38
2017-05-19T06:45:22.860Z,10.54
2017-05-19T06:47:51.091Z,12.28
2017-05-19T06:50:19.306Z,10.96
2017-05-19T06:52:47.527Z,11.16
2017-05-19T06:55:15.767Z,12.38
2017-05-19T06:57:43.996Z,12.58
2017-05-19T07:00:12.212Z,11.90
2017-05-19T07:02:40.443Z,11.66
2017-05-19T07:05:08.675Z,9.28
2017-05-19T07:07:36.907Z,10.12
2017-05-19T07:10:05.128Z,10.28
2017-05-19T07:12:33.366Z,10.98
2017-05-19T07:15:01.579Z,10.10
2017-05-19T07:17:29.795Z,7.36
2017-05-19T07:19:58.016Z,8.44
2017-05-19T07:22:26.227Z,7.68
2017-05-19T07:24:54.439Z,8.52
2017-05-19T07:27:22.659Z,7.94
2017-05-19T07:29:50.881Z,7.24
2017-05-19T07:32:19.099Z,7.42
2017-05-19T07:34:47.319Z,7.94
2017-05-19T07:37:15.523Z,5.50
2017-05-19T07:39:43.751Z,6.38
2017-05-19T07:42:11.958Z,5.08
2017-05-19T07:44:40.196Z,4.72
2017-05-19T07:47:08.408Z,3.94
2017-05-19T07:49:36.623Z,4.58
2017-05-19T07:52:04.844Z,5.36
2017-05-19T07:54:33.051Z,3.46
2017-05-19T07:57:01.619Z,4.68
2017-05-19T07:59:29.831Z,4.12
2017-05-19T08:01:58.045Z,4.26
2017-05-19T08:04:26.269Z,3.32
2017-05-19T08:06:54.483Z,3.42
2017-05-19T08:09:22.709Z,4.20
2017-05-19T08:11:50.931Z,3.00
2017-05-19T08:14:19.146Z,3.84
2017-05-19T08:16:47.363Z,2.96
2017-05-19T08:19:15.571Z,3.12
2017-05-19T08:21:43.792Z,3.44
2017-05-19T08:24:12.007Z,3.62
2017-05-19T08:26:40.228Z,3.14
2017-05-19T08:29:08.450Z,2.82
2017-05-19T08:31:36.663Z,2.86
2017-05-19T08:34:04.878Z,3.40
2017-05-19T08:36:33.088Z,3.70
2017-05-19T08:39:01.311Z,2.92
2017-05-19T08:41:29.539Z,3.20
2017-05-19T08:43:57.751Z,2.80
2017-05-19T08:46:25.973Z,2.90
2017-05-19T08:48:54.180Z,2.82
2017-05-19T08:51:22.403Z,2.72
2017-05-19T08:53:50.607Z,2.82
2017-05-19T08:56:18.823Z,2.52
2017-05-19T08:58:47.051Z,2.60
2017-05-19T09:01:15.267Z,2.50
2017-05-19T09:03:43.504Z,2.60
2017-05-19T09:06:12.556Z,2.94
2017-05-19T09:08:40.711Z,2.80
2017-05-19T09:11:08.939Z,2.74
2017-05-19T09:13:37.147Z,2.60
2017-05-19T09:16:05.420Z,2.72
2017-05-19T09:18:33.627Z,3.28
2017-05-19T09:21:01.845Z,3.30
2017-05-19T09:23:30.059Z,3.18
2017-05-19T09:25:58.283Z,4.28
2017-05-19T09:28:26.519Z,3.58
2017-05-19T09:30:54.727Z,3.50
2017-05-19T09:33:22.947Z,3.82
2017-05-19T09:35:51.163Z,3.88
2017-05-19T09:38:19.377Z,3.74
2017-05-19T09:40:47.626Z,3.52
2017-05-19T09:43:15.840Z,3.98
2017-05-19T09:45:44.060Z,3.72
2017-05-19T09:48:12.272Z,3.74
2017-05-19T09:50:40.480Z,3.68
2017-05-19T09:53:08.716Z,4.56
2017-05-19T09:55:36.923Z,4.02
2017-05-19T09:58:05.144Z,3.52
2017-05-19T10:00:33.355Z,3.26
2017-05-19T10:03:01.607Z,2.94
2017-05-19T10:05:30.507Z,2.28
2017-05-19T10:07:58.712Z,1.90
2017-05-19T10:10:26.939Z,1.90
2017-05-19T10:12:55.160Z,1.74
2017-05-19T10:15:23.391Z,2.18
2017-05-19T10:17:51.595Z,2.46
2017-05-19T10:20:19.815Z,1.74
2017-05-19T10:22:48.030Z,1.28
2017-05-19T10:25:22.604Z,2.70
2017-05-19T10:27:50.824Z,1.18
2017-05-19T10:30:19.039Z,1.38
2017-05-19T10:32:47.260Z,1.50
2017-05-19T10:35:15.471Z,1.62
2017-05-19T10:37:43.700Z,1.18
2017-05-19T10:40:11.923Z,1.54
2017-05-19T10:42:40.137Z,1.30
2017-05-19T10:45:08.366Z,1.60
2017-05-19T10:47:36.577Z,1.68
2017-05-19T10:50:04.804Z,1.62
2017-05-19T10:52:33.022Z,1.36
2017-05-19T10:55:01.247Z,1.08
2017-05-19T10:57:29.463Z,1.66
2017-05-19T10:59:57.697Z,1.32
2017-05-19T11:02:25.924Z,0.94
2017-05-19T11:04:54.131Z,0.94
2017-05-19T11:07:22.359Z,1.30
2017-05-19T11:09:50.571Z,1.02
2017-05-19T11:12:18.816Z,1.48
2017-05-19T11:14:47.024Z,1.38
2017-05-19T11:17:15.247Z,1.72
2017-05-19T11:19:43.468Z,1.54
2017-05-19T11:22:11.679Z,1.40
2017-05-19T11:24:39.900Z,1.38
2017-05-19T11:27:09.295Z,1.46
2017-05-19T11:29:37.527Z,1.70
2017-05-19T11:32:05.738Z,1.70
2017-05-19T11:34:33.978Z,1.56
2017-05-19T11:37:02.203Z,1.44
2017-05-19T11:39:30.425Z,1.90
2017-05-19T11:41:58.650Z,1.84
2017-05-19T11:44:26.847Z,1.40
2017-05-19T11:46:55.087Z,1.76
2017-05-19T11:49:23.305Z,0.88
2017-05-19T11:51:51.523Z,1.32
2017-05-19T11:54:19.743Z,1.30
2017-05-19T11:56:47.955Z,1.06
2017-05-19T11:59:16.190Z,1.12
2017-05-19T12:01:44.432Z,1.04
2017-05-19T12:04:12.643Z,1.20
2017-05-19T12:06:40.863Z,0.90
2017-05-19T12:09:09.075Z,0.80
2017-05-19T12:11:41.274Z,1.04
2017-05-19T12:14:09.595Z,0.60
2017-05-19T12:16:37.834Z,0.70
2017-05-19T12:19:06.148Z,0.52
2017-05-19T12:21:34.767Z,0.70
2017-05-19T12:24:03.011Z,0.70
2017-05-19T12:26:31.228Z,0.50
2017-05-19T12:28:59.459Z,0.40
2017-05-19T12:31:27.672Z,0.64
2017-05-19T12:33:55.882Z,0.56
2017-05-19T12:36:24.095Z,0.54
2017-05-19T12:38:52.315Z,0.40
2017-05-19T12:41:20.547Z,0.52
2017-05-19T12:43:48.759Z,0.60
2017-05-19T12:46:16.967Z,0.60
2017-05-19T12:48:45.191Z,0.56
2017-05-19T12:51:13.418Z,0.50
2017-05-19T12:53:41.639Z,0.70
2017-05-19T12:56:09.861Z,0.50
2017-05-19T12:58:38.075Z,0.64
2017-05-19T13:01:06.292Z,0.70
2017-05-19T13:03:34.506Z,0.44
2017-05-19T13:06:02.732Z,0.48
2017-05-19T13:08:30.955Z,0.60
2017-05-19T13:10:59.167Z,0.54
2017-05-19T13:13:27.391Z,0.88
2017-05-19T13:15:55.603Z,0.46
2017-05-19T13:18:23.824Z,0.72
2017-05-19T13:20:52.040Z,0.50
2017-05-19T13:23:20.248Z,0.70
2017-05-19T13:25:48.475Z,0.60
2017-05-19T13:28:16.691Z,0.66
2017-05-19T13:30:45.792Z,0.60
2017-05-19T13:33:14.004Z,0.96
2017-05-19T13:35:42.211Z,0.46
2017-05-19T13:38:10.431Z,0.60
2017-05-19T13:40:38.639Z,0.46
2017-05-19T13:43:06.876Z,0.84
2017-05-19T13:45:35.091Z,0.50
2017-05-19T13:48:03.307Z,0.56
2017-05-19T13:50:31.527Z,0.50
2017-05-19T13:52:59.739Z,0.50
2017-05-19T13:55:27.966Z,0.70
2017-05-19T13:57:56.175Z,0.66
2017-05-19T14:00:24.399Z,0.38
2017-05-19T14:02:52.620Z,0.50
2017-05-19T14:05:20.851Z,0.66
2017-05-19T14:07:49.055Z,0.50
2017-05-19T14:10:17.259Z,0.50
2017-05-19T14:12:45.483Z,0.50
2017-05-19T14:15:13.693Z,0.60
2017-05-19T14:17:41.915Z,0.40
2017-05-19T14:20:10.131Z,0.72
2017-05-19T14:22:38.371Z,0.76
2017-05-19T14:25:06.568Z,0.60
2017-05-19T14:27:34.782Z,0.70
2017-05-19T14:30:02.995Z,0.58
2017-05-19T14:32:31.227Z,0.66
2017-05-19T14:34:59.440Z,0.66
2017-05-19T14:37:27.651Z,0.60
2017-05-19T14:39:55.871Z,0.76
2017-05-19T14:42:24.091Z,0.50
2017-05-19T14:44:52.322Z,0.60
2017-05-19T14:47:20.536Z,0.60
2017-05-19T14:49:48.761Z,0.70
2017-05-19T14:52:16.976Z,0.86
2017-05-19T14:54:45.677Z,0.66
2017-05-19T14:57:13.872Z,0.60
2017-05-19T14:59:42.108Z,0.60
2017-05-19T15:02:10.315Z,0.66
2017-05-19T15:04:38.523Z,0.50
2017-05-19T15:07:06.745Z,0.72
2017-05-19T15:09:35.495Z,0.60
2017-05-19T15:12:03.715Z,0.50
2017-05-19T15:14:31.927Z,0.46
2017-05-19T15:17:00.149Z,0.60
2017-05-19T15:19:28.355Z,0.80
2017-05-19T15:21:56.643Z,0.78
2017-05-19T15:24:24.853Z,1.10
2017-05-19T15:26:53.099Z,0.72
2017-05-19T15:29:21.318Z,0.60
2017-05-19T15:31:49.523Z,0.70
2017-05-19T15:34:17.744Z,0.50
2017-05-19T15:36:45.947Z,0.70
2017-05-19T15:39:14.171Z,0.90
2017-05-19T15:41:42.378Z,0.66
2017-05-19T15:44:10.610Z,0.70
2017-05-19T15:46:38.815Z,0.68
2017-05-19T15:49:07.035Z,0.60
2017-05-19T15:51:35.255Z,0.74
2017-05-19T15:54:03.468Z,0.70
2017-05-19T15:56:31.679Z,0.90
2017-05-19T15:58:59.895Z,0.84
2017-05-19T16:01:28.119Z,0.72
2017-05-19T16:03:56.330Z,0.62
2017-05-19T16:06:24.558Z,0.66
2017-05-19T16:08:52.763Z,0.76
2017-05-19T16:11:20.983Z,0.50
2017-05-19T16:13:49.195Z,0.60
2017-05-19T16:16:17.407Z,0.60
2017-05-19T16:18:45.640Z,0.62
2017-05-19T16:21:13.855Z,0.62
2017-05-19T16:23:42.077Z,0.50
2017-05-19T16:26:10.289Z,0.48
2017-05-19T16:28:38.533Z,0.64
2017-05-19T16:31:06.739Z,0.48
2017-05-19T16:33:34.965Z,0.66
2017-05-19T16:36:03.172Z,0.74
2017-05-19T16:38:31.416Z,0.60
2017-05-19T16:40:59.638Z,0.70
2017-05-19T16:43:27.847Z,0.54
2017-05-19T16:45:56.075Z,0.60
2017-05-19T16:48:24.288Z,0.60
2017-05-19T16:50:52.507Z,0.70
2017-05-19T16:53:20.723Z,1.08
2017-05-19T16:55:48.956Z,0.72
2017-05-19T16:58:17.179Z,0.80
2017-05-19T17:00:45.400Z,0.60
2017-05-19T17:03:13.607Z,7.86
2017-05-19T17:05:41.834Z,2.28
2017-05-19T17:08:10.040Z,2.68
2017-05-19T17:10:38.256Z,1.62
2017-05-19T17:13:06.478Z,1.30
2017-05-19T17:15:34.688Z,1.08
2017-05-19T17:18:02.909Z,1.12
2017-05-19T17:20:31.115Z,0.80
2017-05-19T17:22:59.329Z,0.90
2017-05-19T17:25:27.551Z,1.40
2017-05-19T17:27:55.775Z,0.96
2017-05-19T17:30:23.982Z,5.50
2017-05-19T17:32:52.208Z,2.00
2017-05-19T17:35:20.415Z,0.90
2017-05-19T17:37:48.625Z,0.70
2017-05-19T17:40:22.699Z,0.70
2017-05-19T17:42:50.915Z,0.88
2017-05-19T17:45:19.140Z,0.90
2017-05-19T17:47:47.357Z,0.92
2017-05-19T17:50:15.622Z,1.10
2017-05-19T17:52:43.839Z,0.98
2017-05-19T17:55:12.059Z,0.82
2017-05-19T17:57:40.271Z,0.88
2017-05-19T18:00:08.852Z,0.90
2017-05-19T18:02:37.100Z,0.98
2017-05-19T18:05:05.325Z,1.00
2017-05-19T18:07:33.542Z,0.88
2017-05-19T18:10:01.764Z,0.80
2017-05-19T18:12:29.975Z,1.18
2017-05-19T18:14:58.196Z,0.90
2017-05-19T18:17:26.408Z,0.92
2017-05-19T18:19:54.624Z,0.98
2017-05-19T18:22:22.849Z,0.70
2017-05-19T18:24:51.063Z,1.10
2017-05-19T18:27:19.811Z,1.66
2017-05-19T18:29:48.029Z,1.04
2017-05-19T18:32:16.271Z,1.20
2017-05-19T18:34:44.479Z,0.52
2017-05-19T18:37:12.702Z,0.98
2017-05-19T18:39:40.920Z,2.56
2017-05-19T18:42:09.134Z,2.78
2017-05-19T18:44:37.431Z,3.64
2017-05-19T18:47:05.711Z,2.98
2017-05-19T18:49:33.918Z,1.40
2017-05-19T18:52:02.147Z,2.26
2017-05-19T18:54:30.360Z,2.30
2017-05-19T18:56:58.595Z,2.30
2017-05-19T18:59:26.808Z,4.52
2017-05-19T19:01:55.035Z,2.22
2017-05-19T19:04:23.239Z,1.68
2017-05-19T19:06:51.452Z,1.64
2017-05-19T19:09:19.664Z,3.10
2017-05-19T19:11:47.892Z,3.76
2017-05-19T19:14:16.128Z,1.40
2017-05-19T19:16:44.415Z,1.16
2017-05-19T19:19:12.627Z,0.96
2017-05-19T19:21:40.858Z,1.20
2017-05-19T19:24:09.143Z,1.50
2017-05-19T19:26:37.423Z,1.36
2017-05-19T19:29:05.692Z,1.32
2017-05-19T19:31:33.969Z,1.20
2017-05-19T19:34:02.187Z,1.14
2017-05-19T19:36:30.403Z,1.26
2017-05-19T19:38:58.627Z,1.40
2017-05-19T19:41:26.853Z,1.30
2017-05-19T19:43:55.143Z,1.18
2017-05-19T19:46:23.415Z,0.90
2017-05-19T19:48:51.691Z,1.30
2017-05-19T19:51:19.901Z,1.30
2017-05-19T19:53:48.128Z,1.38
2017-05-19T19:56:16.345Z,1.66
2017-05-19T19:58:44.628Z,2.02
2017-05-19T20:01:13.692Z,1.54
2017-05-19T20:03:41.915Z,1.96
2017-05-19T20:06:10.123Z,2.30
2017-05-19T20:08:38.344Z,2.30
2017-05-19T20:11:06.561Z,2.36
2017-05-19T20:13:34.777Z,3.10
2017-05-19T20:16:02.991Z,3.30
2017-05-19T20:18:31.211Z,2.42
2017-05-19T20:20:59.423Z,3.38
2017-05-19T20:23:27.668Z,3.54
2017-05-19T20:25:55.878Z,3.54
2017-05-19T20:28:24.129Z,3.88
2017-05-19T20:30:52.338Z,3.90
2017-05-19T20:33:20.551Z,5.68
2017-05-19T20:35:48.819Z,4.16
2017-05-19T20:38:17.400Z,4.56
2017-05-19T20:40:45.623Z,5.36
2017-05-19T20:43:13.836Z,4.08
2017-05-19T20:45:42.056Z,4.00
2017-05-19T20:48:10.268Z,5.28
2017-05-19T20:50:38.479Z,5.18
2017-05-19T20:53:06.687Z,5.58
2017-05-19T20:55:34.915Z,5.82
2017-05-19T20:58:03.133Z,7.74
2017-05-19T21:00:31.355Z,5.30
2017-05-19T21:02:59.567Z,5.88
2017-05-19T21:05:27.784Z,6.64
2017-05-19T21:07:55.993Z,7.30
2017-05-19T21:10:24.203Z,5.86
2017-05-19T21:12:52.407Z,6.74
2017-05-19T21:15:20.751Z,6.26
2017-05-19T21:17:49.015Z,5.60
2017-05-19T21:20:17.290Z,6.12
2017-05-19T21:22:45.575Z,5.76
2017-05-19T21:25:13.842Z,5.86
2017-05-19T21:27:42.048Z,6.06
2017-05-19T21:30:10.295Z,7.28
2017-05-19T21:32:38.575Z,6.98
2017-05-19T21:35:06.852Z,7.00
2017-05-19T21:37:35.127Z,7.76
2017-05-19T21:40:03.403Z,7.32
2017-05-19T21:42:31.689Z,6.72
2017-05-19T21:44:59.947Z,7.08
2017-05-19T21:47:28.171Z,6.58
2017-05-19T21:49:56.409Z,6.88
2017-05-19T21:52:24.679Z,7.52
2017-05-19T21:54:52.898Z,6.78
2017-05-19T21:57:21.127Z,5.40
2017-05-19T21:59:49.347Z,5.90
2017-05-19T22:02:17.567Z,6.02
2017-05-19T22:04:45.782Z,5.30
2017-05-19T22:07:14.012Z,5.68
2017-05-19T22:09:42.227Z,5.28
2017-05-19T22:12:10.455Z,5.28
2017-05-19T22:14:38.663Z,5.94
2017-05-19T22:17:06.931Z,5.70
2017-05-19T22:19:35.148Z,5.80
2017-05-19T22:22:04.059Z,6.08
2017-05-19T22:24:32.280Z,6.82
2017-05-19T22:27:00.502Z,6.44
2017-05-19T22:29:28.719Z,6.96
2017-05-19T22:31:56.926Z,6.34
2017-05-19T22:34:25.136Z,7.44
2017-05-19T22:36:53.371Z,7.48
2017-05-19T22:39:21.592Z,6.90
2017-05-19T22:41:49.802Z,6.30
2017-05-19T22:44:18.028Z,6.48
2017-05-19T22:46:46.262Z,6.40
2017-05-19T22:49:14.987Z,6.72
2017-05-19T22:51:43.200Z,5.90
2017-05-19T22:54:11.439Z,5.48
2017-05-19T22:56:39.642Z,5.14
2017-05-19T22:59:07.852Z,5.38
2017-05-19T23:01:36.068Z,4.88
2017-05-19T23:04:04.271Z,5.20
2017-05-19T23:06:32.489Z,4.80
2017-05-19T23:09:00.699Z,4.90
2017-05-19T23:11:29.420Z,4.32
2017-05-19T23:13:57.627Z,4.52
2017-05-19T23:16:25.841Z,4.40
2017-05-19T23:18:54.059Z,4.12
2017-05-19T23:21:22.259Z,4.16
2017-05-19T23:23:50.475Z,4.44
2017-05-19T23:26:18.675Z,4.30
2017-05-19T23:28:46.920Z,4.76
2017-05-19T23:31:15.130Z,5.26
2017-05-19T23:33:43.355Z,5.52
2017-05-19T23:36:11.564Z,6.32
2017-05-19T23:38:39.769Z,5.30
2017-05-19T23:41:09.847Z,6.34
2017-05-19T23:43:38.055Z,5.92
2017-05-19T23:46:06.284Z,5.94
2017-05-19T23:48:34.483Z,6.62
2017-05-19T23:51:02.700Z,7.32
2017-05-19T23:53:30.925Z,6.18
2017-05-19T23:55:59.136Z,7.30
2017-05-19T23:58:27.355Z,7.04
